Flight Track Log - Related Links

Times and Time Zones

All times are in EDT time to prevent confusion due to time zone crossing. See the FRG207 flight status page for this flight to view local times or setup timezone preferences in your user account.

Time Position Orientation Groundspeed Altitude Reporting Facility
EDT Latitude Longitude Course Direction KTS MPH feet Rate Location/Type
Sat 01:34:08 AM 44.9167 -93.0333 145° Southeast 90 104 1,200  Level Minneapolis TRACON
Sat 01:35:02 AM 44.9000 -93.0167 145° Southeast 96 110 1,700 495 Climbing Minneapolis TRACON
Sat 01:35:57 AM 44.8867 -92.9867 122° Southeast 98 113 2,100 466 Climbing Minneapolis Center
Sat 01:36:58 AM 44.8664 -92.9567 134° Southeast 105 121 2,600 496 Climbing Minneapolis Center
Sat 01:37:58 AM 44.8450 -92.9275 136° Southeast 106 122 3,100 450 Climbing Minneapolis Center
Sat 01:38:58 AM 44.8250 -92.8947 131° Southeast 110 127 3,500 400 Climbing Minneapolis Center
Sat 01:39:58 AM 44.8039 -92.8619 132° Southeast 112 129 3,900 400 Climbing Minneapolis Center
Sat 01:40:58 AM 44.7819 -92.8286 133° Southeast 114 131 4,300 400 Climbing Minneapolis Center
Sat 01:41:58 AM 44.7597 -92.7944 132° Southeast 118 136 4,700 397 Climbing Minneapolis Center
Sat 01:42:59 AM 44.7378 -92.7606 132° Southeast 118 136 5,100 347 Climbing Minneapolis Center
Sat 01:43:59 AM 44.7158 -92.7256 131° Southeast 119 137 5,400 350 Climbing Minneapolis Center
Sat 01:44:59 AM 44.6925 -92.6928 135° Southeast 118 136 5,800 350 Climbing Minneapolis Center
Sat 01:45:59 AM 44.6706 -92.6575 131° Southeast 120 138 6,100 300 Climbing Minneapolis Center
Sat 01:46:59 AM 44.6475 -92.6242 134° Southeast 119 137 6,400 350 Climbing Minneapolis Center
Sat 01:47:59 AM 44.6258 -92.5889 131° Southeast 121 139 6,800 300 Climbing Minneapolis Center
Sat 01:48:59 AM 44.6033 -92.5539 132° Southeast 121 139 7,000 99 Climbing Minneapolis Center
Sat 01:50:00 AM 44.5803 -92.5172 131° Southeast 126 145 7,000 50 Level Minneapolis Center
Sat 01:51:00 AM 44.5561 -92.4778 131° Southeast 132 152 7,100 50 Climbing Minneapolis Center
Sat 01:52:00 AM 44.5322 -92.4403 132° Southeast 130 150 7,100 -50 Level Minneapolis Center
Sat 01:53:00 AM 44.5094 -92.3992 128° Southeast 134 154 7,000 -50 Descending Minneapolis Center
Sat 01:54:00 AM 44.4861 -92.3633 132° Southeast 128 147 7,000 50 Level Minneapolis Center
Sat 01:55:00 AM 44.4603 -92.3228 132° Southeast 131 151 7,100 50 Climbing Minneapolis Center
Sat 01:56:01 AM 44.4381 -92.2844 129° Southeast 130 150 7,100  Level Minneapolis Center
Sat 01:57:01 AM 44.4139 -92.2469 132° Southeast 131 151 7,100 -50 Level Minneapolis Center
Sat 01:58:01 AM 44.3906 -92.2075 130° Southeast 133 153 7,000 -50 Descending Minneapolis Center
Sat 01:59:01 AM 44.3672 -92.1683 130° Southeast 131 151 7,000 50 Level Minneapolis Center
Sat 02:00:01 AM 44.3414 -92.1331 136° Southeast 131 151 7,100 50 Climbing Minneapolis Center
Sat 02:01:02 AM 44.3158 -92.0978 135° Southeast 131 151 7,100 -50 Level Minneapolis Center
Sat 02:02:02 AM 44.2900 -92.0569 131° Southeast 131 151 7,000  Descending Minneapolis Center
Sat 02:03:02 AM 44.2664 -92.0175 130° Southeast 133 153 7,100 50 Climbing Minneapolis Center
Sat 02:04:02 AM 44.2417 -91.9797 132° Southeast 133 153 7,100  Level Minneapolis Center
Sat 02:05:02 AM 44.2172 -91.9425 132° Southeast 132 152 7,100  Level Minneapolis Center
Sat 02:06:02 AM 44.1931 -91.9047 132° Southeast 132 152 7,100  Level Minneapolis Center
Sat 02:07:03 AM 44.1689 -91.8669 132° Southeast 132 152 7,100 -50 Level Minneapolis Center
Sat 02:08:03 AM 44.1428 -91.8311 135° Southeast 134 154 7,000 -50 Descending Minneapolis Center
Sat 02:09:03 AM 44.1164 -91.7878 130° Southeast 135 155 7,000  Level Minneapolis Center
Sat 02:10:03 AM 44.0906 -91.7492 133° Southeast 137 158 7,000 50 Level Minneapolis Center
Sat 02:11:03 AM 44.0647 -91.7114 134° Southeast 137 158 7,100 50 Climbing Minneapolis Center
Sat 02:12:04 AM 44.0417 -91.6717 129° Southeast 134 154 7,100  Level Minneapolis Center
Sat 02:13:04 AM 44.0172 -91.6281 128° Southeast 144 166 7,100  Level Minneapolis Center
Sat 02:14:04 AM 43.9936 -91.5864 128° Southeast 135 155 7,100  Level Minneapolis Center
Sat 02:15:04 AM 43.9700 -91.5472 130° Southeast 135 155 7,100  Level Minneapolis Center
Sat 02:16:04 AM 43.9400 -91.5083 137° Southeast 141 162 7,100  Level Minneapolis Center
Sat 02:17:05 AM 43.9164 -91.4711 131° Southeast 136 157 7,100 -50 Level Minneapolis Center
Sat 02:18:05 AM 43.9003 -91.4186 113° Southeast 143 165 7,000  Descending Minneapolis Center
Sat 02:19:05 AM 43.8875 -91.3683 109° East 144 166 7,100  Climbing Minneapolis Center
Sat 02:20:05 AM 43.8747 -91.3169 109° East 142 163 7,000  Descending Minneapolis Center
Sat 02:21:05 AM 43.8617 -91.2622 108° East 146 168 7,100 50 Climbing Minneapolis Center
Sat 02:22:05 AM 43.8492 -91.2083 108° East 142 163 7,100  Level Minneapolis Center
Sat 02:23:06 AM 43.8378 -91.1583 108° East 142 163 7,100  Level Minneapolis Center
Sat 02:24:06 AM 43.8281 -91.1072 105° East 142 163 7,100  Level Minneapolis Center
Sat 02:25:06 AM 43.8147 -91.0525 109° East 143 165 7,100  Level Minneapolis Center
Sat 02:26:06 AM 43.8025 -91.0033 109° East 142 163 7,100 -50 Level Minneapolis Center
Sat 02:27:06 AM 43.7900 -90.9497 108° East 141 162 7,000  Descending Minneapolis Center
Sat 02:28:07 AM 43.7767 -90.9014 111° Southeast 140 161 7,100  Climbing Minneapolis Center
Sat 02:29:07 AM 43.7647 -90.8492 108° East 137 158 7,000 -50 Descending Minneapolis Center
Sat 02:30:07 AM 43.7517 -90.8014 111° Southeast 137 158 7,000  Level Minneapolis Center
Sat 02:31:07 AM 43.7386 -90.7489 109° East 140 161 7,000  Level Minneapolis Center
Sat 02:32:07 AM 43.7275 -90.7003 108° East 137 158 7,000  Level Minneapolis Center
Sat 02:33:08 AM 43.7158 -90.6486 107° East 137 158 7,000  Level Minneapolis Center
Sat 02:34:05 AM 43.7081 -90.6100 106° East 137 158 7,000  Level Chicago Center
Sat 02:35:05 AM 43.6961 -90.5603 108° East 137 158 7,000  Level Chicago Center
Sat 02:36:05 AM 43.6803 -90.5131 115° Southeast 136 157 7,000 50 Level Chicago Center
Sat 02:37:05 AM 43.6672 -90.4653 111° Southeast 136 157 7,100  Climbing Chicago Center
Sat 02:38:05 AM 43.6569 -90.4142 106° East 137 158 7,000 -50 Descending Chicago Center
Sat 02:39:05 AM 43.6461 -90.3594 105° East 143 165 7,000  Level Chicago Center
Sat 02:40:05 AM 43.6350 -90.3106 107° East 138 159 7,000  Level Chicago Center
Sat 02:41:05 AM 43.6239 -90.2631 108° East 135 155 7,000  Level Chicago Center
Sat 02:42:05 AM 43.6136 -90.2136 106° East 135 155 7,000  Level Chicago Center
Sat 02:43:05 AM 43.6025 -90.1647 107° East 135 155 7,000  Level Chicago Center
Sat 02:44:06 AM 43.5897 -90.1156 110° East 135 155 7,000  Level Chicago Center
Sat 02:45:06 AM 43.5789 -90.0658 107° East 136 157 7,000  Level Chicago Center
Sat 02:46:06 AM 43.5667 -90.0169 109° East 136 157 7,000  Level Chicago Center
Sat 02:47:06 AM 43.5519 -89.9661 112° Southeast 139 160 7,000  Level Chicago Center
Sat 02:48:06 AM 43.5383 -89.9172 111° Southeast 139 160 7,000  Level Chicago Center
Sat 02:49:06 AM 43.5300 -89.8675 103° East 135 155 7,000  Level Chicago Center
Sat 02:50:06 AM 43.5186 -89.8181 108° East 137 158 7,000  Level Chicago Center
Sat 02:51:06 AM 43.5067 -89.7697 109° East 135 155 7,000  Level Chicago Center
Sat 02:52:06 AM 43.4936 -89.7222 111° Southeast 134 154 7,000  Level Chicago Center
Sat 02:53:07 AM 43.4797 -89.6644 108° East 134 154 7,000  Level Chicago Center
Sat 02:54:07 AM 43.4675 -89.6186 110° East 133 153 7,000  Level Chicago Center
Sat 02:55:07 AM 43.4558 -89.5689 108° East 135 155 7,000  Level Chicago Center
Sat 02:56:07 AM 43.4442 -89.5206 108° East 132 152 7,000  Level Chicago Center
Sat 02:57:07 AM 43.4347 -89.4764 106° East 126 145 7,000  Level Chicago Center
Sat 02:58:07 AM 43.4222 -89.4308 111° Southeast 125 144 7,000  Level Chicago Center
Sat 02:59:07 AM 43.3997 -89.3803 121° Southeast 135 155 7,000 50 Level Chicago Center
Sat 03:00:07 AM 43.3886 -89.3317 107° East 136 157 7,100 50 Climbing Chicago Center
Sat 03:01:07 AM 43.3753 -89.2847 111° Southeast 135 155 7,100  Level Chicago Center
Sat 03:02:08 AM 43.3597 -89.2372 114° Southeast 135 155 7,100  Level Chicago Center
Sat 03:03:08 AM 43.3492 -89.1872 106° East 137 158 7,100  Level Chicago Center
Sat 03:04:08 AM 43.3361 -89.1408 111° Southeast 133 153 7,100  Level Chicago Center
Sat 03:05:08 AM 43.3231 -89.0967 112° Southeast 130 150 7,100  Level Chicago Center
Sat 03:06:08 AM 43.3128 -89.0486 106° East 130 150 7,100 -50 Level Chicago Center
Sat 03:07:08 AM 43.3006 -88.9989 109° East 135 155 7,000 -50 Descending Chicago Center
Sat 03:08:08 AM 43.2883 -88.9508 109° East 134 154 7,000  Level Chicago Center
Sat 03:09:09 AM 43.2806 -88.9039 103° East 131 151 7,000  Level Chicago Center
Sat 03:10:09 AM 43.2692 -88.8564 108° East 131 151 7,000  Level Chicago Center
Sat 03:11:09 AM 43.2550 -88.8075 112° Southeast 133 153 7,000 50 Level Chicago Center
Sat 03:12:09 AM 43.2414 -88.7594 111° Southeast 135 155 7,100 50 Climbing Chicago Center
Sat 03:13:09 AM 43.2297 -88.7125 109° East 132 152 7,100  Level Chicago Center
Sat 03:14:09 AM 43.2178 -88.6642 109° East 133 153 7,100  Level Chicago Center
Sat 03:15:09 AM 43.2044 -88.6167 111° Southeast 134 154 7,100  Level Chicago Center
Sat 03:16:10 AM 43.1931 -88.5717 109° East 132 152 7,100  Level Chicago Center
Sat 03:17:10 AM 43.1792 -88.5172 109° East 129 148 7,100  Level Chicago Center
Sat 03:18:10 AM 43.1672 -88.4700 109° East 129 148 7,100  Level Chicago Center
Sat 03:19:10 AM 43.1572 -88.4206 105° East 137 158 7,100 -100 Level Chicago Center
Sat 03:20:10 AM 43.1414 -88.3672 112° Southeast 137 158 6,900 -150 Descending Chicago Center
Sat 03:21:10 AM 43.1269 -88.3214 113° Southeast 135 155 6,800 -200 Descending Chicago Center
Sat 03:22:10 AM 43.1131 -88.2683 110° East 138 159 6,500 -298 Descending Chicago Center
Sat 03:23:11 AM 43.0978 -88.2131 111° Southeast 148 170 6,200 -446 Descending Chicago Center
Sat 03:24:11 AM 43.0800 -88.1606 115° Southeast 151 174 5,600 -600 Descending Chicago Center
Sat 03:25:11 AM 43.0625 -88.1072 114° Southeast 152 175 5,000 -650 Descending Chicago Center
Sat 03:26:11 AM 43.0436 -88.0414 111° Southeast 160 184 4,300 -1,034 Descending Chicago Center
Sat 03:28:05 AM 43.0167 -87.9333 109° East 157 181 2,000 -966 Descending KMKE
Sat 03:29:05 AM 42.9833 -87.8833 132° Southeast 120 138 1,500 -550 Descending KMKE
Sat 03:30:05 AM 42.9667 -87.8833 180° South 84 97 900 -600 Descending KMKE
Sat 03:32:00 AM 42.9469 -87.8971 132° Southeast  Level Estimated

Login

Don't have an account? Register now (free) for customized features, flight alerts, and more!